createdAt,value
2023-04-08T00:00:52.134Z,39.51
2023-04-08T00:03:19.137Z,39.90
2023-04-08T00:05:46.156Z,39.79
2023-04-08T00:08:13.648Z,42.07
2023-04-08T00:10:40.790Z,39.56
2023-04-08T00:13:07.711Z,39.58
2023-04-08T00:15:34.500Z,40.20
2023-04-08T00:18:02.207Z,44.93
2023-04-08T00:20:29.151Z,44.23
2023-04-08T00:22:56.083Z,45.95
2023-04-08T00:25:25.233Z,41.01
2023-04-08T00:27:52.698Z,40.69
2023-04-08T00:30:19.502Z,39.37
2023-04-08T00:32:46.894Z,42.21
2023-04-08T00:35:14.135Z,42.40
2023-04-08T00:37:41.603Z,39.20
2023-04-08T00:40:08.902Z,37.18
2023-04-08T00:42:36.248Z,41.49
2023-04-08T00:45:03.864Z,41.58
2023-04-08T00:47:31.376Z,39.49
2023-04-08T00:49:58.314Z,41.60
2023-04-08T00:52:25.344Z,41.34
2023-04-08T00:54:52.836Z,39.09
2023-04-08T00:57:19.577Z,41.96
2023-04-08T00:59:46.640Z,40.95
2023-04-08T01:02:22.624Z,41.24
2023-04-08T01:05:10.795Z,41.12
2023-04-08T01:07:45.425Z,41.32
2023-04-08T01:10:27.525Z,43.03
2023-04-08T01:12:59.860Z,44.24
2023-04-08T01:15:29.486Z,44.02
2023-04-08T01:17:59.146Z,43.53
2023-04-08T01:20:27.512Z,43.24
2023-04-08T01:23:09.311Z,38.82
2023-04-08T01:25:38.560Z,40.95
2023-04-08T01:28:14.128Z,41.25
2023-04-08T01:30:42.646Z,41.54
2023-04-08T01:33:15.685Z,41.10
2023-04-08T01:35:43.065Z,41.16
2023-04-08T01:38:14.118Z,42.48
2023-04-08T01:40:42.481Z,44.00
2023-04-08T01:43:12.090Z,41.52
2023-04-08T01:45:39.057Z,40.63
2023-04-08T01:48:07.865Z,40.17
2023-04-08T01:50:35.696Z,42.34
2023-04-08T01:53:04.897Z,43.42
2023-04-08T01:55:34.820Z,41.86
2023-04-08T01:58:02.958Z,40.92
2023-04-08T02:00:32.258Z,41.81
2023-04-08T02:03:01.075Z,45.15
2023-04-08T02:05:28.012Z,40.32
2023-04-08T02:07:54.844Z,42.19
2023-04-08T02:10:22.142Z,43.44
2023-04-08T02:12:49.006Z,42.38
2023-04-08T02:15:16.966Z,42.72
2023-04-08T02:17:51.101Z,39.99
2023-04-08T02:20:26.434Z,42.64
2023-04-08T02:23:03.201Z,41.76
2023-04-08T02:25:32.163Z,41.56
2023-04-08T02:28:00.785Z,41.99
2023-04-08T02:30:28.484Z,41.55
2023-04-08T02:32:58.275Z,41.00
2023-04-08T02:35:27.693Z,41.16
2023-04-08T02:37:54.537Z,42.74
2023-04-08T02:40:29.723Z,40.30
2023-04-08T02:42:58.335Z,39.29
2023-04-08T02:45:30.536Z,40.55
2023-04-08T02:47:58.991Z,42.56
2023-04-08T02:50:26.688Z,42.92
2023-04-08T02:52:53.892Z,41.96
2023-04-08T02:55:20.746Z,40.80
2023-04-08T02:57:48.600Z,39.53
2023-04-08T03:00:16.445Z,39.49
2023-04-08T03:02:43.370Z,39.24
2023-04-08T03:05:11.157Z,44.44
2023-04-08T03:07:38.866Z,43.42
2023-04-08T03:10:07.102Z,45.78
2023-04-08T03:12:34.270Z,43.18
2023-04-08T03:15:01.925Z,42.51
2023-04-08T03:17:28.742Z,40.58
2023-04-08T03:19:55.645Z,40.27
2023-04-08T03:22:24.397Z,41.38
2023-04-08T03:24:51.415Z,38.55
2023-04-08T03:27:18.309Z,42.00
2023-04-08T03:29:46.787Z,39.63
2023-04-08T03:32:13.954Z,42.88
2023-04-08T03:34:40.814Z,42.13
2023-04-08T03:37:08.972Z,40.97
2023-04-08T03:39:36.082Z,40.06
2023-04-08T03:42:03.205Z,38.33
2023-04-08T03:44:30.338Z,40.93
2023-04-08T03:46:57.136Z,42.83
2023-04-08T03:49:24.600Z,41.52
2023-04-08T03:51:51.490Z,41.64
2023-04-08T03:54:18.444Z,43.24
2023-04-08T03:56:45.211Z,43.29
2023-04-08T03:59:12.050Z,43.85
2023-04-08T04:01:41.736Z,42.54
2023-04-08T04:04:09.578Z,43.12
2023-04-08T04:06:36.590Z,39.88
2023-04-08T04:09:03.638Z,39.18
2023-04-08T04:11:30.460Z,40.56
2023-04-08T04:13:57.278Z,42.25
2023-04-08T04:16:24.909Z,41.37
2023-04-08T04:18:53.994Z,41.26
2023-04-08T04:21:21.389Z,42.75
2023-04-08T04:23:48.512Z,43.94
2023-04-08T04:26:15.430Z,42.80
2023-04-08T04:28:42.256Z,41.30
2023-04-08T04:31:18.172Z,44.32
2023-04-08T04:33:45.012Z,40.66
2023-04-08T04:36:12.116Z,40.28
2023-04-08T04:38:39.851Z,38.63
2023-04-08T04:41:07.138Z,39.96
2023-04-08T04:43:33.891Z,41.01
2023-04-08T04:46:00.957Z,38.21
2023-04-08T04:48:27.946Z,38.41
2023-04-08T04:51:00.043Z,40.05
2023-04-08T04:53:27.342Z,41.25
2023-04-08T04:55:55.359Z,41.08
2023-04-08T04:58:22.237Z,39.79
2023-04-08T05:00:49.074Z,38.27
2023-04-08T05:03:16.730Z,39.31
2023-04-08T05:05:43.809Z,40.63
2023-04-08T05:08:10.840Z,40.29
2023-04-08T05:10:37.617Z,38.04
2023-04-08T05:13:04.820Z,38.90
2023-04-08T05:15:32.776Z,37.95
2023-04-08T05:17:59.613Z,38.52
2023-04-08T05:20:26.584Z,41.86
2023-04-08T05:22:53.771Z,38.69
2023-04-08T05:25:20.645Z,37.43
2023-04-08T05:27:47.763Z,38.75
2023-04-08T05:30:14.588Z,39.20
2023-04-08T05:32:41.498Z,39.94
2023-04-08T05:35:10.032Z,40.20
2023-04-08T05:37:36.796Z,39.89
2023-04-08T05:40:03.969Z,40.44
2023-04-08T05:42:32.237Z,44.08
2023-04-08T05:44:59.305Z,43.53
2023-04-08T05:47:26.138Z,40.26
2023-04-08T05:49:53.166Z,40.47
2023-04-08T05:52:21.327Z,39.96
2023-04-08T05:54:48.113Z,42.51
2023-04-08T05:57:14.860Z,41.12
2023-04-08T05:59:41.746Z,40.07
2023-04-08T06:02:08.793Z,41.13
2023-04-08T06:04:36.034Z,44.65
2023-04-08T06:07:04.214Z,43.49
2023-04-08T06:09:31.028Z,42.23
2023-04-08T06:11:58.057Z,41.20
2023-04-08T06:14:25.887Z,41.13
2023-04-08T06:16:55.465Z,43.98
2023-04-08T06:19:22.269Z,43.23
2023-04-08T06:21:49.852Z,44.02
2023-04-08T06:24:16.652Z,44.59
2023-04-08T06:26:43.356Z,45.44
2023-04-08T06:29:10.998Z,44.31
2023-04-08T06:31:37.807Z,40.71
2023-04-08T06:34:04.907Z,41.69
2023-04-08T06:36:31.733Z,43.44
2023-04-08T06:38:58.461Z,40.23
2023-04-08T06:41:26.089Z,40.14
2023-04-08T06:43:58.717Z,42.81
2023-04-08T06:46:26.519Z,44.24
2023-04-08T06:48:53.435Z,39.97
2023-04-08T06:51:20.308Z,43.18
2023-04-08T06:53:47.549Z,40.01
2023-04-08T06:56:14.600Z,42.65
2023-04-08T06:58:41.394Z,44.42
2023-04-08T07:01:08.209Z,39.43
2023-04-08T07:03:35.168Z,39.77
2023-04-08T07:06:02.261Z,42.49
2023-04-08T07:08:29.002Z,44.36
2023-04-08T07:10:56.664Z,40.75
2023-04-08T07:13:23.725Z,39.46
2023-04-08T07:15:50.499Z,38.56
2023-04-08T07:18:17.264Z,40.01
2023-04-08T07:20:44.072Z,38.79
2023-04-08T07:23:11.651Z,38.34
2023-04-08T07:25:38.615Z,39.87
2023-04-08T07:28:05.665Z,39.37
2023-04-08T07:30:34.581Z,40.00
2023-04-08T07:33:01.644Z,39.34
2023-04-08T07:35:29.133Z,40.71
2023-04-08T07:37:57.786Z,41.46
2023-04-08T07:40:25.418Z,40.65
2023-04-08T07:42:52.458Z,41.32
2023-04-08T07:45:19.368Z,43.30
2023-04-08T07:47:46.213Z,43.70
2023-04-08T07:50:13.591Z,45.38
2023-04-08T07:52:41.367Z,44.10
2023-04-08T07:55:08.717Z,41.30
2023-04-08T07:57:35.686Z,39.74
2023-04-08T08:00:03.766Z,40.05
2023-04-08T08:02:40.843Z,41.14
2023-04-08T08:05:08.338Z,42.08
2023-04-08T08:07:35.740Z,40.64
2023-04-08T08:10:02.508Z,42.16
2023-04-08T08:12:29.450Z,44.66
2023-04-08T08:14:59.234Z,46.07
2023-04-08T08:17:30.359Z,44.84
2023-04-08T08:19:57.301Z,40.99
2023-04-08T08:22:24.409Z,39.68
2023-04-08T08:24:58.423Z,40.11
2023-04-08T08:27:26.889Z,38.75
2023-04-08T08:29:53.735Z,39.19
2023-04-08T08:32:20.743Z,38.76
2023-04-08T08:34:47.522Z,40.79
2023-04-08T08:37:14.423Z,40.98
2023-04-08T08:39:41.840Z,44.26
2023-04-08T08:42:22.354Z,42.49
2023-04-08T08:44:49.889Z,43.87
2023-04-08T08:47:17.441Z,43.18
2023-04-08T08:49:45.485Z,41.56
2023-04-08T08:52:16.322Z,41.92
2023-04-08T08:54:44.346Z,41.48
2023-04-08T08:57:21.320Z,41.08
2023-04-08T08:59:48.173Z,41.74
2023-04-08T09:02:30.040Z,40.90
2023-04-08T09:05:02.427Z,43.16
2023-04-08T09:07:30.981Z,42.01
2023-04-08T09:09:59.478Z,41.33
2023-04-08T09:12:28.475Z,40.47
2023-04-08T09:15:08.586Z,41.24
2023-04-08T09:17:38.454Z,40.79
2023-04-08T09:20:12.365Z,41.97
2023-04-08T09:22:58.946Z,39.78
2023-04-08T09:25:28.743Z,43.21
2023-04-08T09:27:56.543Z,41.88
2023-04-08T09:30:28.258Z,41.41
2023-04-08T09:32:57.510Z,42.41
2023-04-08T09:35:26.424Z,41.17
2023-04-08T09:37:53.239Z,41.81
2023-04-08T09:40:20.272Z,39.68
2023-04-08T09:42:51.247Z,39.98
2023-04-08T09:45:19.149Z,41.22
2023-04-08T09:48:22.668Z,41.25
2023-04-08T09:50:51.381Z,39.08
2023-04-08T09:53:23.377Z,38.56
2023-04-08T09:55:53.687Z,38.84
2023-04-08T09:58:27.716Z,39.23
2023-04-08T10:00:55.387Z,41.54
2023-04-08T10:03:25.588Z,41.72
2023-04-08T10:05:54.423Z,42.83
2023-04-08T10:08:22.251Z,38.07
2023-04-08T10:10:49.526Z,39.38
2023-04-08T10:13:17.115Z,39.11
2023-04-08T10:15:45.808Z,41.17
2023-04-08T10:18:18.668Z,40.14
2023-04-08T10:20:46.970Z,39.61
2023-04-08T10:23:18.709Z,41.04
2023-04-08T10:25:48.130Z,39.73
2023-04-08T10:28:15.521Z,41.31
2023-04-08T10:30:48.743Z,41.91
2023-04-08T10:33:37.875Z,39.95
2023-04-08T10:36:07.164Z,41.80
2023-04-08T10:38:34.162Z,39.98
2023-04-08T10:41:01.025Z,41.48
2023-04-08T10:43:33.785Z,39.68
2023-04-08T10:46:01.716Z,39.28
2023-04-08T10:48:31.784Z,39.58
2023-04-08T10:50:59.692Z,37.59
2023-04-08T10:53:34.720Z,39.75
2023-04-08T10:56:13.463Z,39.21
2023-04-08T10:58:50.822Z,39.60
2023-04-08T11:01:18.211Z,36.76
2023-04-08T11:03:46.070Z,38.17
2023-04-08T11:06:13.967Z,41.36
2023-04-08T11:08:42.473Z,39.22
2023-04-08T11:11:10.838Z,39.86
2023-04-08T11:13:51.065Z,43.24
2023-04-08T11:16:21.761Z,40.28
2023-04-08T11:18:49.638Z,41.14
2023-04-08T11:21:17.434Z,38.78
2023-04-08T11:23:44.397Z,40.36
2023-04-08T11:26:12.386Z,41.62
2023-04-08T11:28:40.467Z,38.44
2023-04-08T11:31:08.995Z,40.39
2023-04-08T11:33:36.395Z,40.20
2023-04-08T11:36:08.544Z,41.79
2023-04-08T11:38:40.512Z,42.61
2023-04-08T11:41:07.623Z,39.79
2023-04-08T11:43:36.692Z,42.71
2023-04-08T11:46:22.630Z,41.33
2023-04-08T11:49:02.937Z,41.65
2023-04-08T11:51:30.156Z,39.65
2023-04-08T11:53:57.843Z,39.22
2023-04-08T11:56:25.676Z,41.41
2023-04-08T11:58:53.388Z,40.11
2023-04-08T12:01:21.550Z,41.01
2023-04-08T12:03:57.324Z,39.03
2023-04-08T12:06:24.821Z,40.44
2023-04-08T12:08:51.778Z,39.83
2023-04-08T12:11:20.253Z,39.69
2023-04-08T12:13:49.818Z,38.65
2023-04-08T12:16:17.540Z,39.65
2023-04-08T12:18:44.816Z,41.33
2023-04-08T12:21:11.759Z,39.70
2023-04-08T12:23:38.610Z,41.21
2023-04-08T12:26:05.692Z,41.33
2023-04-08T12:28:32.579Z,41.83
2023-04-08T12:30:59.713Z,38.41
2023-04-08T12:33:26.543Z,39.16
2023-04-08T12:35:54.216Z,40.23
2023-04-08T12:38:21.056Z,42.78
2023-04-08T12:40:49.741Z,41.99
2023-04-08T12:43:18.000Z,43.12
2023-04-08T12:45:44.973Z,42.69
2023-04-08T12:48:11.772Z,42.62
2023-04-08T12:50:38.643Z,42.21
2023-04-08T12:53:05.530Z,42.54
2023-04-08T12:55:32.522Z,42.32
2023-04-08T12:57:59.899Z,39.97
2023-04-08T13:00:26.767Z,43.64
2023-04-08T13:02:53.627Z,41.41
2023-04-08T13:05:29.453Z,40.70
2023-04-08T13:08:06.881Z,39.89
2023-04-08T13:10:34.084Z,41.98
2023-04-08T13:13:00.850Z,40.63
2023-04-08T13:15:28.396Z,41.61
2023-04-08T13:17:55.258Z,42.86
2023-04-08T13:20:25.878Z,41.59
2023-04-08T13:22:53.566Z,41.70
2023-04-08T13:25:20.988Z,42.71
2023-04-08T13:27:47.911Z,42.48
2023-04-08T13:30:16.008Z,42.10
2023-04-08T13:32:43.755Z,42.82
2023-04-08T13:35:10.748Z,41.92
2023-04-08T13:37:37.791Z,41.70
2023-04-08T13:40:05.363Z,43.30
2023-04-08T13:42:32.885Z,42.84
2023-04-08T13:45:00.517Z,41.85
2023-04-08T13:47:29.005Z,42.71
2023-04-08T13:49:55.783Z,42.87
2023-04-08T13:52:22.884Z,42.16
2023-04-08T13:54:49.782Z,41.98
2023-04-08T13:57:16.545Z,42.01
2023-04-08T13:59:44.830Z,42.89
2023-04-08T14:02:11.773Z,41.54
2023-04-08T14:04:40.043Z,40.19
2023-04-08T14:07:07.101Z,43.13
2023-04-08T14:09:34.184Z,43.31
2023-04-08T14:12:01.211Z,43.04
2023-04-08T14:14:28.083Z,43.83
2023-04-08T14:16:55.850Z,42.32
2023-04-08T14:19:23.057Z,42.36
2023-04-08T14:21:49.882Z,41.38
2023-04-08T14:24:16.672Z,41.47
2023-04-08T14:26:44.180Z,42.84
2023-04-08T14:29:11.854Z,42.84
2023-04-08T14:31:38.675Z,44.96
2023-04-08T14:34:05.539Z,42.90
2023-04-08T14:36:33.025Z,41.13
2023-04-08T14:39:00.900Z,42.63
2023-04-08T14:41:27.733Z,40.95
2023-04-08T14:43:54.994Z,40.75
2023-04-08T14:46:22.332Z,41.29
2023-04-08T14:48:49.804Z,42.21
2023-04-08T14:51:16.837Z,40.10
2023-04-08T14:53:44.552Z,40.28
2023-04-08T14:56:11.411Z,40.44
2023-04-08T14:58:38.390Z,40.12
2023-04-08T15:01:05.348Z,38.64
2023-04-08T15:03:32.244Z,39.34
2023-04-08T15:05:59.893Z,39.69
2023-04-08T15:08:26.697Z,39.30
2023-04-08T15:10:53.598Z,40.40
2023-04-08T15:13:20.373Z,42.55
2023-04-08T15:15:47.232Z,39.10
2023-04-08T15:18:14.837Z,40.72
2023-04-08T15:20:41.979Z,40.05
2023-04-08T15:23:08.974Z,40.33
2023-04-08T15:25:35.804Z,40.50
2023-04-08T15:28:02.799Z,40.53
2023-04-08T15:30:35.523Z,39.88
2023-04-08T15:33:04.716Z,39.08
2023-04-08T15:35:33.095Z,37.73
2023-04-08T15:38:01.225Z,37.27
2023-04-08T15:40:28.239Z,38.38
2023-04-08T15:42:56.082Z,39.22
2023-04-08T15:45:23.057Z,39.47
2023-04-08T15:47:50.117Z,39.28
2023-04-08T15:50:17.626Z,40.85
2023-04-08T15:52:45.157Z,39.46
2023-04-08T15:55:12.123Z,38.57
2023-04-08T15:57:39.126Z,41.13
2023-04-08T16:00:16.657Z,38.81
2023-04-08T16:02:44.207Z,39.80
2023-04-08T16:05:13.286Z,38.59
2023-04-08T16:07:40.309Z,38.74
2023-04-08T16:10:07.678Z,37.12
2023-04-08T16:12:34.815Z,39.69
2023-04-08T16:15:01.813Z,37.50
2023-04-08T16:17:28.724Z,38.37
2023-04-08T16:19:55.605Z,37.46
2023-04-08T16:22:22.392Z,37.67
2023-04-08T16:24:49.202Z,38.19
2023-04-08T16:27:16.637Z,36.75
2023-04-08T16:29:43.391Z,36.49
2023-04-08T16:32:10.675Z,37.38
2023-04-08T16:34:37.580Z,36.87
2023-04-08T16:37:04.363Z,39.86
2023-04-08T16:39:32.064Z,39.91
2023-04-08T16:41:58.899Z,38.56
2023-04-08T16:44:25.771Z,38.30
2023-04-08T16:46:52.672Z,38.53
2023-04-08T16:49:19.644Z,39.04
2023-04-08T16:51:47.123Z,37.68
2023-04-08T16:54:15.877Z,39.51
2023-04-08T16:56:45.751Z,37.66
2023-04-08T16:59:13.092Z,38.31
2023-04-08T17:01:40.128Z,37.67
2023-04-08T17:04:07.110Z,38.23
2023-04-08T17:06:37.775Z,39.84
2023-04-08T17:09:04.588Z,37.89
2023-04-08T17:11:32.005Z,39.28
2023-04-08T17:13:59.475Z,42.61
2023-04-08T17:16:26.363Z,42.10
2023-04-08T17:18:53.356Z,39.57
2023-04-08T17:21:20.369Z,39.03
2023-04-08T17:23:48.442Z,40.14
2023-04-08T17:26:16.237Z,38.20
2023-04-08T17:28:43.513Z,36.82
2023-04-08T17:31:11.207Z,38.93
2023-04-08T17:33:37.991Z,39.01
2023-04-08T17:36:05.229Z,38.71
2023-04-08T17:38:32.995Z,38.30
2023-04-08T17:40:59.794Z,39.33
2023-04-08T17:43:27.337Z,38.16
2023-04-08T17:45:54.361Z,39.23
2023-04-08T17:48:21.417Z,39.37
2023-04-08T17:50:48.317Z,39.48
2023-04-08T17:53:16.508Z,39.93
2023-04-08T17:55:43.244Z,39.60
2023-04-08T17:58:10.093Z,39.45
2023-04-08T18:00:36.932Z,40.63
2023-04-08T18:03:04.242Z,39.54
2023-04-08T18:05:32.762Z,38.86
2023-04-08T18:07:59.674Z,39.28
2023-04-08T18:10:26.551Z,37.38
2023-04-08T18:12:57.773Z,39.26
2023-04-08T18:15:36.440Z,39.61
2023-04-08T18:18:03.531Z,39.61
2023-04-08T18:20:30.421Z,40.58
2023-04-08T18:22:57.259Z,39.27
2023-04-08T18:25:24.108Z,40.29
2023-04-08T18:27:51.259Z,40.57
2023-04-08T18:30:18.349Z,38.31
2023-04-08T18:32:45.146Z,38.15
2023-04-08T18:35:11.971Z,39.05
2023-04-08T18:37:38.751Z,40.34
2023-04-08T18:40:07.565Z,37.79
2023-04-08T18:42:34.408Z,37.96
2023-04-08T18:45:01.972Z,38.34
2023-04-08T18:47:28.847Z,39.16
2023-04-08T18:49:56.877Z,40.13
2023-04-08T18:52:23.653Z,39.55
2023-04-08T18:54:50.713Z,39.73
2023-04-08T18:57:18.392Z,39.34
2023-04-08T18:59:48.676Z,40.39
2023-04-08T19:02:17.263Z,40.84
2023-04-08T19:04:44.150Z,40.43
2023-04-08T19:07:12.031Z,41.09
2023-04-08T19:13:04.997Z,44.66
2023-04-08T19:15:31.972Z,44.00
2023-04-08T19:17:59.463Z,44.50
2023-04-08T19:20:27.463Z,42.51
2023-04-08T19:22:55.978Z,43.02
2023-04-08T19:25:22.893Z,42.78
2023-04-08T19:27:49.877Z,40.86
2023-04-08T19:30:17.111Z,39.58
2023-04-08T19:32:44.427Z,39.96
2023-04-08T19:35:12.445Z,42.19
2023-04-08T19:37:39.446Z,40.58
2023-04-08T19:40:08.246Z,40.55
2023-04-08T19:42:35.039Z,39.61
2023-04-08T19:45:03.154Z,41.24
2023-04-08T19:47:30.928Z,42.95
2023-04-08T19:49:59.019Z,43.65
2023-04-08T19:52:27.054Z,43.56
2023-04-08T19:54:54.172Z,43.78
2023-04-08T19:57:21.239Z,41.78
2023-04-08T19:59:48.937Z,44.46
2023-04-08T20:02:16.393Z,44.21
2023-04-08T20:04:46.371Z,44.33
2023-04-08T20:07:14.668Z,45.99
2023-04-08T20:09:41.641Z,43.65
2023-04-08T20:12:09.236Z,44.46
2023-04-08T20:14:39.017Z,42.00
2023-04-08T20:17:05.846Z,42.21
2023-04-08T20:19:33.352Z,43.15
2023-04-08T20:22:01.791Z,41.81
2023-04-08T20:24:30.201Z,42.16
2023-04-08T20:26:57.384Z,41.64
2023-04-08T20:29:24.278Z,40.71
2023-04-08T20:31:51.924Z,42.25
2023-04-08T20:34:19.054Z,42.13
2023-04-08T20:36:46.794Z,42.23
2023-04-08T20:39:13.687Z,40.66
2023-04-08T20:41:40.751Z,39.90
2023-04-08T20:44:09.814Z,39.21
2023-04-08T20:46:37.892Z,40.91
2023-04-08T20:49:05.378Z,42.14
2023-04-08T20:51:33.865Z,41.30
2023-04-08T20:54:02.617Z,42.55
2023-04-08T20:56:30.375Z,41.49
2023-04-08T20:58:59.659Z,42.22
2023-04-08T21:01:28.049Z,41.92
2023-04-08T21:03:55.052Z,42.03
2023-04-08T21:06:22.301Z,41.19
2023-04-08T21:08:50.141Z,40.72
2023-04-08T21:11:17.710Z,40.41
2023-04-08T21:13:46.008Z,39.53
2023-04-08T21:16:14.254Z,39.90
2023-04-08T21:18:41.228Z,39.34
2023-04-08T21:21:10.133Z,39.12
2023-04-08T21:23:37.039Z,38.95
2023-04-08T21:26:03.925Z,38.98
2023-04-08T21:28:32.004Z,40.82
2023-04-08T21:31:08.517Z,40.61
2023-04-08T21:33:35.418Z,40.84
2023-04-08T21:36:02.300Z,41.12
2023-04-08T21:38:29.237Z,42.80
2023-04-08T21:40:56.128Z,40.87
2023-04-08T21:43:23.014Z,41.32
2023-04-08T21:45:49.870Z,40.60
2023-04-08T21:48:17.268Z,40.39
2023-04-08T21:50:46.212Z,41.68
2023-04-08T21:53:13.500Z,41.30
2023-04-08T21:55:40.305Z,41.11
2023-04-08T21:58:07.087Z,40.44
2023-04-08T22:00:33.974Z,40.37
2023-04-08T22:03:01.146Z,40.91
2023-04-08T22:05:28.593Z,43.11
2023-04-08T22:07:55.413Z,40.85
2023-04-08T22:10:22.367Z,39.21
2023-04-08T22:12:49.261Z,39.76
2023-04-08T22:15:16.920Z,40.31
2023-04-08T22:17:44.111Z,41.08
2023-04-08T22:20:11.446Z,41.49
2023-04-08T22:22:38.286Z,42.05
2023-04-08T22:25:05.836Z,42.32
2023-04-08T22:27:32.647Z,43.46
2023-04-08T22:29:59.416Z,41.90
2023-04-08T22:32:26.544Z,41.73
2023-04-08T22:34:53.423Z,42.06
2023-04-08T22:37:20.172Z,39.93
2023-04-08T22:39:47.756Z,37.95
2023-04-08T22:42:14.574Z,37.97
2023-04-08T22:44:41.413Z,40.29
2023-04-08T22:47:08.201Z,39.05
2023-04-08T22:49:34.985Z,40.64
2023-04-08T22:52:02.740Z,38.49
2023-04-08T22:54:29.613Z,39.85
2023-04-08T22:56:56.693Z,41.53
2023-04-08T22:59:23.621Z,41.38
2023-04-08T23:01:50.438Z,43.51
2023-04-08T23:04:18.056Z,41.12
2023-04-08T23:06:44.968Z,38.92
2023-04-08T23:09:11.711Z,38.00
2023-04-08T23:11:38.613Z,40.54
2023-04-08T23:14:05.738Z,40.43
2023-04-08T23:16:33.029Z,38.49
2023-04-08T23:18:59.873Z,38.86
2023-04-08T23:21:27.079Z,40.91
2023-04-08T23:23:53.900Z,38.10
2023-04-08T23:26:23.378Z,38.48
2023-04-08T23:28:50.454Z,40.59
2023-04-08T23:31:18.243Z,43.45
2023-04-08T23:33:45.037Z,43.55
2023-04-08T23:36:12.509Z,40.56
2023-04-08T23:38:39.353Z,39.58
2023-04-08T23:41:07.281Z,38.33
2023-04-08T23:43:36.219Z,38.47
2023-04-08T23:46:03.567Z,38.51
2023-04-08T23:48:30.404Z,39.65
2023-04-08T23:50:57.197Z,40.13
2023-04-08T23:53:23.931Z,39.79
2023-04-08T23:55:50.723Z,40.03
2023-04-08T23:58:18.382Z,39.06
